sensor_id;sensor_type;location;lat;lon;timestamp;P1;durP1;ratioP1;P2;durP2;ratioP2
76552;SDS011;65395;53.168;18.156;2024-02-26T00:00:39;39.60;;;21.30;;
76552;SDS011;65395;53.168;18.156;2024-02-26T00:03:27;44.90;;;23.10;;
76552;SDS011;65395;53.168;18.156;2024-02-26T00:05:54;43.30;;;21.40;;
76552;SDS011;65395;53.168;18.156;2024-02-26T00:08:22;45.80;;;21.50;;
76552;SDS011;65395;53.168;18.156;2024-02-26T00:10:49;46.40;;;22.80;;
76552;SDS011;65395;53.168;18.156;2024-02-26T00:13:16;44.70;;;22.60;;
76552;SDS011;65395;53.168;18.156;2024-02-26T00:15:43;43.40;;;21.00;;
76552;SDS011;65395;53.168;18.156;2024-02-26T00:18:10;43.10;;;21.20;;
76552;SDS011;65395;53.168;18.156;2024-02-26T00:20:37;43.10;;;22.20;;
76552;SDS011;65395;53.168;18.156;2024-02-26T00:23:05;50.60;;;23.60;;
76552;SDS011;65395;53.168;18.156;2024-02-26T00:25:32;48.70;;;22.60;;
76552;SDS011;65395;53.168;18.156;2024-02-26T00:27:59;48.10;;;23.30;;
76552;SDS011;65395;53.168;18.156;2024-02-26T00:30:26;45.40;;;20.90;;
76552;SDS011;65395;53.168;18.156;2024-02-26T00:32:53;47.60;;;22.20;;
76552;SDS011;65395;53.168;18.156;2024-02-26T00:35:20;42.20;;;20.30;;
76552;SDS011;65395;53.168;18.156;2024-02-26T00:37:47;43.50;;;20.50;;
76552;SDS011;65395;53.168;18.156;2024-02-26T00:40:13;42.60;;;20.40;;
76552;SDS011;65395;53.168;18.156;2024-02-26T00:42:40;45.70;;;21.70;;
76552;SDS011;65395;53.168;18.156;2024-02-26T00:45:12;44.00;;;21.20;;
76552;SDS011;65395;53.168;18.156;2024-02-26T00:47:39;43.60;;;19.70;;
76552;SDS011;65395;53.168;18.156;2024-02-26T00:50:07;42.90;;;20.10;;
76552;SDS011;65395;53.168;18.156;2024-02-26T00:52:34;42.80;;;20.60;;
76552;SDS011;65395;53.168;18.156;2024-02-26T00:55:02;45.30;;;21.00;;
76552;SDS011;65395;53.168;18.156;2024-02-26T00:57:29;40.20;;;20.00;;
76552;SDS011;65395;53.168;18.156;2024-02-26T00:59:56;42.60;;;20.40;;
76552;SDS011;65395;53.168;18.156;2024-02-26T01:02:23;43.80;;;21.30;;
76552;SDS011;65395;53.168;18.156;2024-02-26T01:04:50;42.40;;;20.20;;
76552;SDS011;65395;53.168;18.156;2024-02-26T01:07:19;46.00;;;21.30;;
76552;SDS011;65395;53.168;18.156;2024-02-26T01:09:46;45.60;;;21.70;;
76552;SDS011;65395;53.168;18.156;2024-02-26T01:12:13;45.70;;;20.20;;
76552;SDS011;65395;53.168;18.156;2024-02-26T01:14:39;45.70;;;21.60;;
76552;SDS011;65395;53.168;18.156;2024-02-26T01:17:06;39.70;;;19.70;;
76552;SDS011;65395;53.168;18.156;2024-02-26T01:19:33;43.50;;;20.60;;
76552;SDS011;65395;53.168;18.156;2024-02-26T01:22:00;46.50;;;20.60;;
76552;SDS011;65395;53.168;18.156;2024-02-26T01:24:27;44.80;;;21.10;;
76552;SDS011;65395;53.168;18.156;2024-02-26T01:26:55;45.20;;;20.70;;
76552;SDS011;65395;53.168;18.156;2024-02-26T01:29:22;40.80;;;20.40;;
76552;SDS011;65395;53.168;18.156;2024-02-26T01:31:49;42.00;;;20.10;;
76552;SDS011;65395;53.168;18.156;2024-02-26T01:34:16;43.90;;;20.60;;
76552;SDS011;65395;53.168;18.156;2024-02-26T01:36:44;42.80;;;20.70;;
76552;SDS011;65395;53.168;18.156;2024-02-26T01:39:11;45.60;;;22.00;;
76552;SDS011;65395;53.168;18.156;2024-02-26T01:41:39;45.80;;;22.10;;
76552;SDS011;65395;53.168;18.156;2024-02-26T01:44:07;46.80;;;21.90;;
76552;SDS011;65395;53.168;18.156;2024-02-26T01:46:34;45.00;;;22.00;;
76552;SDS011;65395;53.168;18.156;2024-02-26T01:49:03;44.60;;;21.30;;
76552;SDS011;65395;53.168;18.156;2024-02-26T01:51:30;42.40;;;22.00;;
76552;SDS011;65395;53.168;18.156;2024-02-26T01:53:59;38.20;;;19.80;;
76552;SDS011;65395;53.168;18.156;2024-02-26T01:56:29;48.00;;;22.00;;
76552;SDS011;65395;53.168;18.156;2024-02-26T01:58:58;47.30;;;23.30;;
76552;SDS011;65395;53.168;18.156;2024-02-26T02:01:25;48.70;;;24.20;;
76552;SDS011;65395;53.168;18.156;2024-02-26T02:03:56;47.70;;;22.70;;
76552;SDS011;65395;53.168;18.156;2024-02-26T02:06:25;39.30;;;21.50;;
76552;SDS011;65395;53.168;18.156;2024-02-26T02:08:54;56.20;;;24.90;;
76552;SDS011;65395;53.168;18.156;2024-02-26T02:11:21;53.60;;;23.60;;
76552;SDS011;65395;53.168;18.156;2024-02-26T02:13:48;57.40;;;24.40;;
76552;SDS011;65395;53.168;18.156;2024-02-26T02:16:15;57.90;;;23.00;;
76552;SDS011;65395;53.168;18.156;2024-02-26T02:18:42;53.60;;;23.00;;
76552;SDS011;65395;53.168;18.156;2024-02-26T02:21:09;48.60;;;22.50;;
76552;SDS011;65395;53.168;18.156;2024-02-26T02:23:36;53.40;;;22.90;;
76552;SDS011;65395;53.168;18.156;2024-02-26T02:26:03;48.60;;;23.50;;
76552;SDS011;65395;53.168;18.156;2024-02-26T02:28:30;46.30;;;23.00;;
76552;SDS011;65395;53.168;18.156;2024-02-26T02:30:57;42.10;;;20.80;;
76552;SDS011;65395;53.168;18.156;2024-02-26T02:33:25;42.50;;;20.00;;
76552;SDS011;65395;53.168;18.156;2024-02-26T02:35:52;41.30;;;20.70;;
76552;SDS011;65395;53.168;18.156;2024-02-26T02:38:21;47.70;;;21.80;;
76552;SDS011;65395;53.168;18.156;2024-02-26T02:40:49;60.40;;;25.30;;
76552;SDS011;65395;53.168;18.156;2024-02-26T02:43:16;53.20;;;22.30;;
76552;SDS011;65395;53.168;18.156;2024-02-26T02:45:43;50.90;;;21.30;;
76552;SDS011;65395;53.168;18.156;2024-02-26T02:48:11;43.00;;;20.20;;
76552;SDS011;65395;53.168;18.156;2024-02-26T02:50:38;48.00;;;22.10;;
76552;SDS011;65395;53.168;18.156;2024-02-26T02:53:05;57.30;;;25.00;;
76552;SDS011;65395;53.168;18.156;2024-02-26T02:55:32;54.90;;;27.00;;
76552;SDS011;65395;53.168;18.156;2024-02-26T02:57:59;53.10;;;24.60;;
76552;SDS011;65395;53.168;18.156;2024-02-26T03:00:26;48.80;;;24.20;;
76552;SDS011;65395;53.168;18.156;2024-02-26T03:02:53;49.00;;;23.30;;
76552;SDS011;65395;53.168;18.156;2024-02-26T03:05:20;44.70;;;23.30;;
76552;SDS011;65395;53.168;18.156;2024-02-26T03:07:47;48.20;;;23.80;;
76552;SDS011;65395;53.168;18.156;2024-02-26T03:10:14;47.40;;;22.00;;
76552;SDS011;65395;53.168;18.156;2024-02-26T03:12:41;48.40;;;22.90;;
76552;SDS011;65395;53.168;18.156;2024-02-26T03:15:08;44.50;;;21.10;;
76552;SDS011;65395;53.168;18.156;2024-02-26T03:17:35;46.50;;;21.50;;
76552;SDS011;65395;53.168;18.156;2024-02-26T03:20:02;49.20;;;23.20;;
76552;SDS011;65395;53.168;18.156;2024-02-26T03:22:31;54.30;;;24.80;;
76552;SDS011;65395;53.168;18.156;2024-02-26T03:24:58;50.20;;;24.10;;
76552;SDS011;65395;53.168;18.156;2024-02-26T03:27:25;52.70;;;23.70;;
76552;SDS011;65395;53.168;18.156;2024-02-26T03:29:52;51.50;;;23.30;;
76552;SDS011;65395;53.168;18.156;2024-02-26T03:32:19;49.20;;;23.80;;
76552;SDS011;65395;53.168;18.156;2024-02-26T03:34:46;53.90;;;23.10;;
76552;SDS011;65395;53.168;18.156;2024-02-26T03:37:13;51.30;;;23.50;;
76552;SDS011;65395;53.168;18.156;2024-02-26T03:39:39;53.80;;;24.80;;
76552;SDS011;65395;53.168;18.156;2024-02-26T03:42:06;48.80;;;23.50;;
76552;SDS011;65395;53.168;18.156;2024-02-26T03:44:33;57.00;;;25.10;;
76552;SDS011;65395;53.168;18.156;2024-02-26T03:47:00;51.30;;;23.60;;
76552;SDS011;65395;53.168;18.156;2024-02-26T03:49:27;55.20;;;23.90;;
76552;SDS011;65395;53.168;18.156;2024-02-26T03:51:54;55.80;;;23.70;;
76552;SDS011;65395;53.168;18.156;2024-02-26T03:54:21;55.10;;;24.20;;
76552;SDS011;65395;53.168;18.156;2024-02-26T03:56:47;45.70;;;22.10;;
76552;SDS011;65395;53.168;18.156;2024-02-26T03:59:14;43.30;;;19.80;;
76552;SDS011;65395;53.168;18.156;2024-02-26T04:01:45;42.00;;;20.10;;
76552;SDS011;65395;53.168;18.156;2024-02-26T04:04:13;42.20;;;20.10;;
76552;SDS011;65395;53.168;18.156;2024-02-26T04:06:43;40.00;;;20.20;;
76552;SDS011;65395;53.168;18.156;2024-02-26T04:09:13;38.80;;;19.80;;
76552;SDS011;65395;53.168;18.156;2024-02-26T04:11:41;41.90;;;20.60;;
76552;SDS011;65395;53.168;18.156;2024-02-26T04:14:09;40.40;;;21.00;;
76552;SDS011;65395;53.168;18.156;2024-02-26T04:16:38;45.80;;;23.30;;
76552;SDS011;65395;53.168;18.156;2024-02-26T04:19:05;43.40;;;21.40;;
76552;SDS011;65395;53.168;18.156;2024-02-26T04:21:33;44.50;;;22.50;;
76552;SDS011;65395;53.168;18.156;2024-02-26T04:24:01;46.80;;;22.00;;
76552;SDS011;65395;53.168;18.156;2024-02-26T04:26:29;44.80;;;21.70;;
76552;SDS011;65395;53.168;18.156;2024-02-26T04:28:57;45.20;;;20.90;;
76552;SDS011;65395;53.168;18.156;2024-02-26T04:31:24;39.40;;;21.50;;
76552;SDS011;65395;53.168;18.156;2024-02-26T04:33:51;44.50;;;22.40;;
76552;SDS011;65395;53.168;18.156;2024-02-26T04:36:18;51.60;;;21.70;;
76552;SDS011;65395;53.168;18.156;2024-02-26T04:38:45;43.20;;;22.70;;
76552;SDS011;65395;53.168;18.156;2024-02-26T04:41:12;41.20;;;20.90;;
76552;SDS011;65395;53.168;18.156;2024-02-26T04:43:39;41.60;;;21.20;;
76552;SDS011;65395;53.168;18.156;2024-02-26T04:46:08;41.50;;;21.70;;
76552;SDS011;65395;53.168;18.156;2024-02-26T04:48:35;37.80;;;20.40;;
76552;SDS011;65395;53.168;18.156;2024-02-26T04:51:03;37.70;;;19.60;;
76552;SDS011;65395;53.168;18.156;2024-02-26T04:53:30;41.50;;;19.80;;
76552;SDS011;65395;53.168;18.156;2024-02-26T04:55:57;37.10;;;19.30;;
76552;SDS011;65395;53.168;18.156;2024-02-26T04:58:24;34.90;;;18.60;;
76552;SDS011;65395;53.168;18.156;2024-02-26T05:00:51;37.80;;;18.60;;
76552;SDS011;65395;53.168;18.156;2024-02-26T05:03:19;37.70;;;19.60;;
76552;SDS011;65395;53.168;18.156;2024-02-26T05:05:46;37.50;;;19.20;;
76552;SDS011;65395;53.168;18.156;2024-02-26T05:08:13;39.30;;;21.90;;
76552;SDS011;65395;53.168;18.156;2024-02-26T05:10:40;38.70;;;20.90;;
76552;SDS011;65395;53.168;18.156;2024-02-26T05:13:07;41.00;;;22.10;;
76552;SDS011;65395;53.168;18.156;2024-02-26T05:15:35;44.20;;;24.00;;
76552;SDS011;65395;53.168;18.156;2024-02-26T05:18:02;45.30;;;24.30;;
76552;SDS011;65395;53.168;18.156;2024-02-26T05:20:30;39.00;;;21.80;;
76552;SDS011;65395;53.168;18.156;2024-02-26T05:22:57;38.30;;;20.80;;
76552;SDS011;65395;53.168;18.156;2024-02-26T05:25:25;37.90;;;19.40;;
76552;SDS011;65395;53.168;18.156;2024-02-26T05:27:52;35.40;;;20.60;;
76552;SDS011;65395;53.168;18.156;2024-02-26T05:30:19;39.10;;;19.90;;
76552;SDS011;65395;53.168;18.156;2024-02-26T05:32:46;40.60;;;21.80;;
76552;SDS011;65395;53.168;18.156;2024-02-26T05:35:12;42.80;;;21.70;;
76552;SDS011;65395;53.168;18.156;2024-02-26T05:37:40;44.70;;;22.70;;
76552;SDS011;65395;53.168;18.156;2024-02-26T05:40:07;40.20;;;20.50;;
76552;SDS011;65395;53.168;18.156;2024-02-26T05:42:34;37.90;;;21.90;;
76552;SDS011;65395;53.168;18.156;2024-02-26T05:45:01;40.00;;;21.30;;
76552;SDS011;65395;53.168;18.156;2024-02-26T05:47:32;35.90;;;19.80;;
76552;SDS011;65395;53.168;18.156;2024-02-26T05:50:00;35.10;;;18.50;;
76552;SDS011;65395;53.168;18.156;2024-02-26T05:52:28;35.60;;;19.40;;
76552;SDS011;65395;53.168;18.156;2024-02-26T05:54:56;35.70;;;20.30;;
76552;SDS011;65395;53.168;18.156;2024-02-26T05:57:23;35.80;;;20.30;;
76552;SDS011;65395;53.168;18.156;2024-02-26T05:59:50;35.90;;;19.40;;
76552;SDS011;65395;53.168;18.156;2024-02-26T06:02:17;41.10;;;21.50;;
76552;SDS011;65395;53.168;18.156;2024-02-26T06:04:44;38.70;;;20.90;;
76552;SDS011;65395;53.168;18.156;2024-02-26T06:07:12;38.60;;;20.60;;
76552;SDS011;65395;53.168;18.156;2024-02-26T06:09:40;39.10;;;20.60;;
76552;SDS011;65395;53.168;18.156;2024-02-26T06:12:07;40.70;;;20.90;;
76552;SDS011;65395;53.168;18.156;2024-02-26T06:14:33;41.80;;;22.30;;
76552;SDS011;65395;53.168;18.156;2024-02-26T06:17:00;43.10;;;21.50;;
76552;SDS011;65395;53.168;18.156;2024-02-26T06:19:27;39.60;;;20.90;;
76552;SDS011;65395;53.168;18.156;2024-02-26T06:21:54;38.70;;;21.00;;
76552;SDS011;65395;53.168;18.156;2024-02-26T06:24:21;40.70;;;21.10;;
76552;SDS011;65395;53.168;18.156;2024-02-26T06:26:48;36.90;;;20.10;;
76552;SDS011;65395;53.168;18.156;2024-02-26T06:29:15;42.20;;;20.80;;
76552;SDS011;65395;53.168;18.156;2024-02-26T06:31:42;42.80;;;21.60;;
76552;SDS011;65395;53.168;18.156;2024-02-26T06:34:09;40.70;;;21.40;;
76552;SDS011;65395;53.168;18.156;2024-02-26T06:36:38;38.20;;;20.80;;
76552;SDS011;65395;53.168;18.156;2024-02-26T06:39:05;38.30;;;20.60;;
76552;SDS011;65395;53.168;18.156;2024-02-26T06:41:32;39.90;;;20.20;;
76552;SDS011;65395;53.168;18.156;2024-02-26T06:43:59;39.30;;;21.70;;
76552;SDS011;65395;53.168;18.156;2024-02-26T06:46:26;37.40;;;20.90;;
76552;SDS011;65395;53.168;18.156;2024-02-26T06:48:55;38.60;;;20.50;;
76552;SDS011;65395;53.168;18.156;2024-02-26T06:51:22;38.70;;;20.50;;
76552;SDS011;65395;53.168;18.156;2024-02-26T06:53:49;39.00;;;20.60;;
76552;SDS011;65395;53.168;18.156;2024-02-26T06:59:32;35.10;;;19.50;;
76552;SDS011;65395;53.168;18.156;2024-02-26T07:01:59;34.10;;;19.30;;
76552;SDS011;65395;53.168;18.156;2024-02-26T07:04:27;35.30;;;19.00;;
76552;SDS011;65395;53.168;18.156;2024-02-26T07:06:54;35.30;;;19.40;;
76552;SDS011;65395;53.168;18.156;2024-02-26T07:37:18;38.50;;;19.70;;
76552;SDS011;65395;53.168;18.156;2024-02-26T07:39:45;33.50;;;18.70;;
76552;SDS011;65395;53.168;18.156;2024-02-26T07:42:12;33.30;;;19.50;;
76552;SDS011;65395;53.168;18.156;2024-02-26T07:44:39;33.90;;;19.30;;
76552;SDS011;65395;53.168;18.156;2024-02-26T07:47:09;34.30;;;18.20;;
76552;SDS011;65395;53.168;18.156;2024-02-26T07:49:36;34.50;;;18.20;;
76552;SDS011;65395;53.168;18.156;2024-02-26T07:52:03;31.40;;;17.50;;
76552;SDS011;65395;53.168;18.156;2024-02-26T07:54:30;32.90;;;18.70;;
76552;SDS011;65395;53.168;18.156;2024-02-26T07:56:57;34.60;;;18.70;;
76552;SDS011;65395;53.168;18.156;2024-02-26T07:59:24;31.20;;;18.50;;
76552;SDS011;65395;53.168;18.156;2024-02-26T08:01:51;33.50;;;17.40;;
76552;SDS011;65395;53.168;18.156;2024-02-26T08:04:18;38.20;;;19.30;;
76552;SDS011;65395;53.168;18.156;2024-02-26T08:06:45;37.50;;;18.90;;
76552;SDS011;65395;53.168;18.156;2024-02-26T08:09:13;35.90;;;19.20;;
76552;SDS011;65395;53.168;18.156;2024-02-26T08:11:39;38.10;;;19.20;;
76552;SDS011;65395;53.168;18.156;2024-02-26T08:14:06;41.70;;;19.80;;
76552;SDS011;65395;53.168;18.156;2024-02-26T08:16:34;35.00;;;19.60;;
76552;SDS011;65395;53.168;18.156;2024-02-26T08:19:00;35.00;;;18.60;;
76552;SDS011;65395;53.168;18.156;2024-02-26T08:21:27;37.60;;;19.90;;
76552;SDS011;65395;53.168;18.156;2024-02-26T08:23:54;37.40;;;18.60;;
76552;SDS011;65395;53.168;18.156;2024-02-26T08:26:21;39.00;;;20.80;;
76552;SDS011;65395;53.168;18.156;2024-02-26T08:28:50;41.30;;;22.10;;
76552;SDS011;65395;53.168;18.156;2024-02-26T08:31:17;39.60;;;21.10;;
76552;SDS011;65395;53.168;18.156;2024-02-26T08:33:44;41.40;;;21.40;;
76552;SDS011;65395;53.168;18.156;2024-02-26T08:36:11;42.50;;;22.30;;
76552;SDS011;65395;53.168;18.156;2024-02-26T08:38:39;45.60;;;23.90;;
76552;SDS011;65395;53.168;18.156;2024-02-26T08:41:06;47.60;;;25.30;;
76552;SDS011;65395;53.168;18.156;2024-02-26T08:43:33;52.50;;;26.30;;
76552;SDS011;65395;53.168;18.156;2024-02-26T08:46:00;52.10;;;25.70;;
76552;SDS011;65395;53.168;18.156;2024-02-26T08:48:27;47.60;;;24.30;;
76552;SDS011;65395;53.168;18.156;2024-02-26T08:50:54;51.70;;;26.30;;
76552;SDS011;65395;53.168;18.156;2024-02-26T08:53:21;49.40;;;26.40;;
76552;SDS011;65395;53.168;18.156;2024-02-26T08:55:48;48.70;;;26.30;;
76552;SDS011;65395;53.168;18.156;2024-02-26T08:58:14;46.60;;;23.80;;
76552;SDS011;65395;53.168;18.156;2024-02-26T09:00:41;44.90;;;23.60;;
76552;SDS011;65395;53.168;18.156;2024-02-26T09:03:08;49.50;;;25.10;;
76552;SDS011;65395;53.168;18.156;2024-02-26T09:05:35;50.90;;;26.20;;
76552;SDS011;65395;53.168;18.156;2024-02-26T09:08:02;44.60;;;24.00;;
76552;SDS011;65395;53.168;18.156;2024-02-26T09:10:30;50.80;;;24.70;;
76552;SDS011;65395;53.168;18.156;2024-02-26T09:12:56;48.60;;;24.00;;
76552;SDS011;65395;53.168;18.156;2024-02-26T09:15:23;49.10;;;25.60;;
76552;SDS011;65395;53.168;18.156;2024-02-26T09:17:50;48.20;;;25.80;;
76552;SDS011;65395;53.168;18.156;2024-02-26T09:20:18;53.50;;;25.90;;
76552;SDS011;65395;53.168;18.156;2024-02-26T09:22:46;46.50;;;23.10;;
76552;SDS011;65395;53.168;18.156;2024-02-26T09:25:13;54.80;;;28.20;;
76552;SDS011;65395;53.168;18.156;2024-02-26T09:27:42;57.40;;;28.20;;
76552;SDS011;65395;53.168;18.156;2024-02-26T09:30:10;57.80;;;29.50;;
76552;SDS011;65395;53.168;18.156;2024-02-26T09:32:38;60.60;;;30.20;;
76552;SDS011;65395;53.168;18.156;2024-02-26T09:35:06;66.10;;;33.50;;
76552;SDS011;65395;53.168;18.156;2024-02-26T09:37:33;68.40;;;33.20;;
76552;SDS011;65395;53.168;18.156;2024-02-26T09:40:03;65.30;;;34.00;;
76552;SDS011;65395;53.168;18.156;2024-02-26T09:42:32;67.40;;;33.60;;
76552;SDS011;65395;53.168;18.156;2024-02-26T09:45:03;69.50;;;35.00;;
76552;SDS011;65395;53.168;18.156;2024-02-26T09:47:34;68.00;;;32.80;;
76552;SDS011;65395;53.168;18.156;2024-02-26T09:50:02;65.30;;;32.40;;
76552;SDS011;65395;53.168;18.156;2024-02-26T09:52:31;67.40;;;33.00;;
76552;SDS011;65395;53.168;18.156;2024-02-26T09:55:01;65.00;;;33.50;;
76552;SDS011;65395;53.168;18.156;2024-02-26T09:57:29;67.10;;;32.40;;
76552;SDS011;65395;53.168;18.156;2024-02-26T09:59:59;75.40;;;36.70;;
76552;SDS011;65395;53.168;18.156;2024-02-26T10:02:31;69.10;;;33.80;;
76552;SDS011;65395;53.168;18.156;2024-02-26T10:05:01;75.00;;;35.30;;
76552;SDS011;65395;53.168;18.156;2024-02-26T10:07:31;76.90;;;36.20;;
76552;SDS011;65395;53.168;18.156;2024-02-26T10:09:58;78.90;;;36.20;;
76552;SDS011;65395;53.168;18.156;2024-02-26T10:12:25;75.50;;;37.50;;
76552;SDS011;65395;53.168;18.156;2024-02-26T10:14:54;77.20;;;37.40;;
76552;SDS011;65395;53.168;18.156;2024-02-26T10:17:21;77.60;;;37.40;;
76552;SDS011;65395;53.168;18.156;2024-02-26T10:19:49;75.30;;;36.90;;
76552;SDS011;65395;53.168;18.156;2024-02-26T10:22:18;80.10;;;35.80;;
76552;SDS011;65395;53.168;18.156;2024-02-26T10:24:46;74.80;;;35.60;;
76552;SDS011;65395;53.168;18.156;2024-02-26T10:27:13;75.90;;;37.60;;
76552;SDS011;65395;53.168;18.156;2024-02-26T10:29:41;80.70;;;38.50;;
76552;SDS011;65395;53.168;18.156;2024-02-26T10:32:09;78.10;;;37.90;;
76552;SDS011;65395;53.168;18.156;2024-02-26T10:34:37;78.60;;;38.20;;
76552;SDS011;65395;53.168;18.156;2024-02-26T10:37:08;77.50;;;38.20;;
76552;SDS011;65395;53.168;18.156;2024-02-26T10:39:36;78.40;;;38.20;;
76552;SDS011;65395;53.168;18.156;2024-02-26T10:42:04;73.60;;;37.40;;
76552;SDS011;65395;53.168;18.156;2024-02-26T10:44:36;74.00;;;38.00;;
76552;SDS011;65395;53.168;18.156;2024-02-26T10:47:03;69.50;;;35.20;;
76552;SDS011;65395;53.168;18.156;2024-02-26T10:49:30;71.70;;;35.30;;
76552;SDS011;65395;53.168;18.156;2024-02-26T10:51:57;65.30;;;35.00;;
76552;SDS011;65395;53.168;18.156;2024-02-26T10:54:26;65.90;;;34.70;;
76552;SDS011;65395;53.168;18.156;2024-02-26T10:56:56;64.40;;;33.90;;
76552;SDS011;65395;53.168;18.156;2024-02-26T10:59:25;68.70;;;33.30;;
76552;SDS011;65395;53.168;18.156;2024-02-26T11:01:52;60.30;;;31.50;;
76552;SDS011;65395;53.168;18.156;2024-02-26T11:04:22;58.90;;;31.20;;
76552;SDS011;65395;53.168;18.156;2024-02-26T11:06:49;59.20;;;29.80;;
76552;SDS011;65395;53.168;18.156;2024-02-26T11:09:16;55.70;;;30.40;;
76552;SDS011;65395;53.168;18.156;2024-02-26T11:11:46;58.50;;;30.10;;
76552;SDS011;65395;53.168;18.156;2024-02-26T11:14:14;61.20;;;31.30;;
76552;SDS011;65395;53.168;18.156;2024-02-26T11:16:42;59.40;;;30.40;;
76552;SDS011;65395;53.168;18.156;2024-02-26T11:19:09;63.60;;;32.50;;
76552;SDS011;65395;53.168;18.156;2024-02-26T11:21:40;58.80;;;30.60;;
76552;SDS011;65395;53.168;18.156;2024-02-26T11:24:08;59.40;;;30.50;;
76552;SDS011;65395;53.168;18.156;2024-02-26T11:26:38;60.60;;;31.90;;
76552;SDS011;65395;53.168;18.156;2024-02-26T11:29:11;61.80;;;31.90;;
76552;SDS011;65395;53.168;18.156;2024-02-26T11:31:42;60.00;;;31.80;;
76552;SDS011;65395;53.168;18.156;2024-02-26T11:34:10;60.80;;;31.60;;
76552;SDS011;65395;53.168;18.156;2024-02-26T11:36:38;62.90;;;32.10;;
76552;SDS011;65395;53.168;18.156;2024-02-26T11:39:06;57.20;;;31.00;;
76552;SDS011;65395;53.168;18.156;2024-02-26T11:41:33;55.70;;;30.10;;
76552;SDS011;65395;53.168;18.156;2024-02-26T11:44:00;58.30;;;31.10;;
76552;SDS011;65395;53.168;18.156;2024-02-26T11:46:30;55.90;;;30.30;;
76552;SDS011;65395;53.168;18.156;2024-02-26T11:48:59;55.70;;;29.80;;
76552;SDS011;65395;53.168;18.156;2024-02-26T11:51:33;53.70;;;28.80;;
76552;SDS011;65395;53.168;18.156;2024-02-26T11:54:01;51.90;;;28.60;;
76552;SDS011;65395;53.168;18.156;2024-02-26T11:56:28;55.30;;;30.30;;
76552;SDS011;65395;53.168;18.156;2024-02-26T11:58:57;58.70;;;29.90;;
76552;SDS011;65395;53.168;18.156;2024-02-26T12:04:13;48.80;;;26.80;;
76552;SDS011;65395;53.168;18.156;2024-02-26T12:06:42;52.10;;;26.90;;
76552;SDS011;65395;53.168;18.156;2024-02-26T12:09:12;51.70;;;27.10;;
76552;SDS011;65395;53.168;18.156;2024-02-26T12:11:40;52.80;;;28.30;;
76552;SDS011;65395;53.168;18.156;2024-02-26T12:14:09;47.50;;;25.80;;
76552;SDS011;65395;53.168;18.156;2024-02-26T12:16:37;46.20;;;24.80;;
76552;SDS011;65395;53.168;18.156;2024-02-26T12:19:05;45.70;;;25.20;;
76552;SDS011;65395;53.168;18.156;2024-02-26T12:21:35;50.80;;;27.00;;
76552;SDS011;65395;53.168;18.156;2024-02-26T12:24:11;46.70;;;26.40;;
76552;SDS011;65395;53.168;18.156;2024-02-26T12:26:39;44.90;;;25.10;;
76552;SDS011;65395;53.168;18.156;2024-02-26T12:29:07;42.50;;;24.70;;
76552;SDS011;65395;53.168;18.156;2024-02-26T12:31:35;46.80;;;25.20;;
76552;SDS011;65395;53.168;18.156;2024-02-26T12:34:03;44.00;;;24.20;;
76552;SDS011;65395;53.168;18.156;2024-02-26T12:36:31;43.80;;;22.90;;
76552;SDS011;65395;53.168;18.156;2024-02-26T12:39:01;43.20;;;23.10;;
76552;SDS011;65395;53.168;18.156;2024-02-26T12:41:32;40.00;;;22.50;;
76552;SDS011;65395;53.168;18.156;2024-02-26T12:44:00;40.10;;;22.90;;
76552;SDS011;65395;53.168;18.156;2024-02-26T12:46:27;39.80;;;22.90;;
76552;SDS011;65395;53.168;18.156;2024-02-26T12:48:56;40.40;;;23.40;;
76552;SDS011;65395;53.168;18.156;2024-02-26T12:51:26;39.70;;;23.70;;
76552;SDS011;65395;53.168;18.156;2024-02-26T12:53:53;42.90;;;23.30;;
76552;SDS011;65395;53.168;18.156;2024-02-26T12:56:22;39.10;;;22.10;;
76552;SDS011;65395;53.168;18.156;2024-02-26T12:58:50;36.20;;;21.40;;
76552;SDS011;65395;53.168;18.156;2024-02-26T13:01:19;39.50;;;22.00;;
76552;SDS011;65395;53.168;18.156;2024-02-26T13:03:50;33.30;;;21.00;;
76552;SDS011;65395;53.168;18.156;2024-02-26T13:06:19;36.40;;;21.20;;
76552;SDS011;65395;53.168;18.156;2024-02-26T13:08:48;34.90;;;20.60;;
76552;SDS011;65395;53.168;18.156;2024-02-26T13:11:15;34.20;;;20.40;;
76552;SDS011;65395;53.168;18.156;2024-02-26T13:13:42;36.20;;;20.60;;
76552;SDS011;65395;53.168;18.156;2024-02-26T13:16:14;34.60;;;19.90;;
76552;SDS011;65395;53.168;18.156;2024-02-26T13:18:42;33.60;;;21.10;;
76552;SDS011;65395;53.168;18.156;2024-02-26T13:21:10;35.10;;;21.10;;
76552;SDS011;65395;53.168;18.156;2024-02-26T13:23:40;34.50;;;21.70;;
76552;SDS011;65395;53.168;18.156;2024-02-26T13:26:08;34.70;;;20.30;;
76552;SDS011;65395;53.168;18.156;2024-02-26T13:28:39;34.20;;;21.50;;
76552;SDS011;65395;53.168;18.156;2024-02-26T13:31:06;33.10;;;20.20;;
76552;SDS011;65395;53.168;18.156;2024-02-26T13:33:35;31.90;;;19.10;;
76552;SDS011;65395;53.168;18.156;2024-02-26T13:36:02;31.20;;;18.40;;
76552;SDS011;65395;53.168;18.156;2024-02-26T13:38:30;30.40;;;18.30;;
76552;SDS011;65395;53.168;18.156;2024-02-26T13:40:57;32.10;;;17.90;;
76552;SDS011;65395;53.168;18.156;2024-02-26T13:43:24;30.00;;;17.60;;
76552;SDS011;65395;53.168;18.156;2024-02-26T13:45:51;28.90;;;16.80;;
76552;SDS011;65395;53.168;18.156;2024-02-26T13:48:18;29.20;;;16.60;;
76552;SDS011;65395;53.168;18.156;2024-02-26T13:50:45;26.30;;;16.30;;
76552;SDS011;65395;53.168;18.156;2024-02-26T13:53:12;27.30;;;15.50;;
76552;SDS011;65395;53.168;18.156;2024-02-26T13:55:40;28.20;;;15.40;;
76552;SDS011;65395;53.168;18.156;2024-02-26T13:58:11;28.00;;;16.50;;
76552;SDS011;65395;53.168;18.156;2024-02-26T14:00:40;24.30;;;15.20;;
76552;SDS011;65395;53.168;18.156;2024-02-26T14:03:08;26.80;;;16.20;;
76552;SDS011;65395;53.168;18.156;2024-02-26T14:05:35;26.30;;;15.10;;
76552;SDS011;65395;53.168;18.156;2024-02-26T14:08:02;26.50;;;15.00;;
76552;SDS011;65395;53.168;18.156;2024-02-26T14:10:29;26.50;;;14.20;;
76552;SDS011;65395;53.168;18.156;2024-02-26T14:12:58;26.50;;;15.00;;
76552;SDS011;65395;53.168;18.156;2024-02-26T14:15:25;22.00;;;13.20;;
76552;SDS011;65395;53.168;18.156;2024-02-26T14:17:53;24.00;;;13.20;;
76552;SDS011;65395;53.168;18.156;2024-02-26T14:20:22;24.60;;;13.70;;
76552;SDS011;65395;53.168;18.156;2024-02-26T14:22:50;20.90;;;13.30;;
76552;SDS011;65395;53.168;18.156;2024-02-26T14:25:21;23.80;;;13.20;;
76552;SDS011;65395;53.168;18.156;2024-02-26T14:27:48;19.60;;;11.90;;
76552;SDS011;65395;53.168;18.156;2024-02-26T14:30:16;20.90;;;12.00;;
76552;SDS011;65395;53.168;18.156;2024-02-26T14:32:43;22.90;;;12.90;;
76552;SDS011;65395;53.168;18.156;2024-02-26T14:35:10;21.10;;;12.70;;
76552;SDS011;65395;53.168;18.156;2024-02-26T14:37:38;23.90;;;12.60;;
76552;SDS011;65395;53.168;18.156;2024-02-26T14:40:05;22.30;;;12.70;;
76552;SDS011;65395;53.168;18.156;2024-02-26T14:42:32;23.30;;;12.30;;
76552;SDS011;65395;53.168;18.156;2024-02-26T14:44:59;22.10;;;13.40;;